createdAt,value
2022-11-02T00:00:34.862Z,11.10
2022-11-02T00:03:04.054Z,11.10
2022-11-02T00:05:34.422Z,11.10
2022-11-02T00:08:02.862Z,11.10
2022-11-02T00:10:31.421Z,11.20
2022-11-02T00:13:00.037Z,11.20
2022-11-02T00:15:32.180Z,11.10
2022-11-02T00:20:34.184Z,11.00
2022-11-02T00:23:05.041Z,11.10
2022-11-02T00:25:33.973Z,11.10
2022-11-02T00:28:02.512Z,11.10
2022-11-02T00:30:30.996Z,11.10
2022-11-02T00:32:59.463Z,11.10
2022-11-02T00:35:28.083Z,11.20
2022-11-02T00:37:57.967Z,11.20
2022-11-02T00:40:26.488Z,11.20
2022-11-02T00:42:55.074Z,11.30
2022-11-02T00:45:23.912Z,11.40
2022-11-02T00:47:52.695Z,11.40
2022-11-02T00:50:21.220Z,11.50
2022-11-02T00:52:49.804Z,11.60
2022-11-02T00:55:19.883Z,11.50
2022-11-02T00:57:48.391Z,11.60
2022-11-02T01:00:17.606Z,11.60
2022-11-02T01:02:46.136Z,11.60
2022-11-02T01:05:14.723Z,11.60
2022-11-02T01:07:43.214Z,11.60
2022-11-02T01:10:12.788Z,11.70
2022-11-02T01:12:42.902Z,11.80
2022-11-02T01:15:12.022Z,11.90
2022-11-02T01:17:40.570Z,12.00
2022-11-02T01:20:10.140Z,12.10
2022-11-02T01:22:38.632Z,12.10
2022-11-02T01:25:08.084Z,12.10
2022-11-02T01:27:36.721Z,12.10
2022-11-02T01:30:08.131Z,12.10
2022-11-02T01:32:36.627Z,12.10
2022-11-02T01:35:05.472Z,12.10
2022-11-02T01:37:35.479Z,12.20
2022-11-02T01:40:04.063Z,12.20
2022-11-02T01:42:32.504Z,12.30
2022-11-02T01:45:01.012Z,12.30
2022-11-02T01:47:34.572Z,12.30
2022-11-02T01:50:06.624Z,12.30
2022-11-02T01:52:37.104Z,12.30
2022-11-02T01:55:11.618Z,12.40
2022-11-02T01:57:43.032Z,12.40
2022-11-02T02:00:14.453Z,12.40
2022-11-02T02:02:49.402Z,12.40
2022-11-02T02:05:19.002Z,12.50
2022-11-02T02:07:48.833Z,12.50
2022-11-02T02:10:17.412Z,12.50
2022-11-02T02:12:46.247Z,12.50
2022-11-02T02:15:15.183Z,12.50
2022-11-02T02:17:51.873Z,12.50
2022-11-02T02:20:36.494Z,12.50
2022-11-02T02:23:28.281Z,12.50
2022-11-02T02:26:30.463Z,12.50
2022-11-02T02:29:02.860Z,12.50
2022-11-02T02:31:38.095Z,12.50
2022-11-02T02:34:14.024Z,12.50
2022-11-02T02:36:49.005Z,12.50
2022-11-02T02:39:23.139Z,12.50
2022-11-02T02:41:59.760Z,12.50
2022-11-02T02:44:35.872Z,12.50
2022-11-02T02:47:10.199Z,12.40
2022-11-02T02:49:42.013Z,12.30
2022-11-02T02:52:12.377Z,12.40
2022-11-02T02:54:45.136Z,12.40
2022-11-02T02:57:18.683Z,12.40
2022-11-02T02:59:50.103Z,12.40
2022-11-02T03:02:22.113Z,12.40
2022-11-02T03:04:50.753Z,12.40
2022-11-02T03:07:26.371Z,12.40
2022-11-02T03:10:07.152Z,12.40
2022-11-02T03:12:45.405Z,12.30
2022-11-02T03:15:22.310Z,12.30
2022-11-02T03:18:05.690Z,12.30
2022-11-02T03:20:41.400Z,12.30
2022-11-02T03:23:19.403Z,12.30
2022-11-02T03:25:58.123Z,12.30
2022-11-02T03:28:37.193Z,12.30
2022-11-02T03:31:13.254Z,12.40
2022-11-02T03:33:48.321Z,12.30
2022-11-02T03:36:21.939Z,12.30
2022-11-02T03:38:54.492Z,12.40
2022-11-02T03:41:25.932Z,12.40
2022-11-02T03:44:01.353Z,12.40
2022-11-02T03:46:34.284Z,12.40
2022-11-02T03:49:08.504Z,12.40
2022-11-02T03:51:41.074Z,12.40
2022-11-02T03:54:14.933Z,12.40
2022-11-02T03:56:47.513Z,12.40
2022-11-02T03:59:16.144Z,12.40
2022-11-02T04:01:49.107Z,12.50
2022-11-02T04:04:18.220Z,12.50
2022-11-02T04:06:48.502Z,12.50
2022-11-02T04:09:17.362Z,12.50
2022-11-02T04:12:17.742Z,12.60
2022-11-02T04:14:47.881Z,12.60
2022-11-02T04:17:35.099Z,12.60
2022-11-02T04:20:03.853Z,12.70
2022-11-02T04:22:49.823Z,12.70
2022-11-02T04:25:20.644Z,12.70
2022-11-02T04:27:50.684Z,12.70
2022-11-02T04:30:21.187Z,12.70
2022-11-02T04:33:09.788Z,12.70
2022-11-02T04:35:38.642Z,12.60
2022-11-02T04:38:24.620Z,12.50
2022-11-02T04:41:13.113Z,12.50
2022-11-02T04:43:41.783Z,12.50
2022-11-02T04:46:10.233Z,12.50
2022-11-02T04:48:40.183Z,12.50
2022-11-02T04:51:08.682Z,12.50
2022-11-02T04:53:37.214Z,12.50
2022-11-02T04:56:06.323Z,12.50
2022-11-02T04:58:34.883Z,12.40
2022-11-02T05:01:07.333Z,12.40
2022-11-02T05:03:35.983Z,12.40
2022-11-02T05:06:06.365Z,12.40
2022-11-02T05:08:35.011Z,12.30
2022-11-02T05:11:03.736Z,12.30
2022-11-02T05:13:32.261Z,12.30
2022-11-02T05:16:01.234Z,12.30
2022-11-02T05:18:30.423Z,12.30
2022-11-02T05:21:01.243Z,12.20
2022-11-02T05:23:31.353Z,12.20
2022-11-02T05:26:01.473Z,12.10
2022-11-02T05:28:31.434Z,12.10
2022-11-02T05:31:01.143Z,12.10
2022-11-02T05:33:31.082Z,12.10
2022-11-02T05:36:00.635Z,12.10
2022-11-02T05:38:31.073Z,12.00
2022-11-02T05:41:00.787Z,12.00
2022-11-02T05:43:29.413Z,11.90
2022-11-02T05:46:00.243Z,11.90
2022-11-02T05:48:30.105Z,11.90
2022-11-02T05:50:58.962Z,11.90
2022-11-02T05:53:28.764Z,11.80
2022-11-02T05:56:01.123Z,11.90
2022-11-02T05:58:29.894Z,11.80
2022-11-02T06:01:01.414Z,11.90
2022-11-02T06:03:30.026Z,11.90
2022-11-02T06:05:59.585Z,11.90
2022-11-02T06:08:28.324Z,11.90
2022-11-02T06:10:56.824Z,12.00
2022-11-02T06:13:26.785Z,12.00
2022-11-02T06:15:55.281Z,12.00
2022-11-02T06:18:23.771Z,12.00
2022-11-02T06:20:52.203Z,12.00
2022-11-02T06:23:20.759Z,11.90
2022-11-02T06:25:53.524Z,11.90
2022-11-02T06:28:22.874Z,11.90
2022-11-02T06:30:52.803Z,11.90
2022-11-02T06:33:21.936Z,11.90
2022-11-02T06:35:52.074Z,11.90
2022-11-02T06:38:20.914Z,11.90
2022-11-02T06:40:55.595Z,11.90
2022-11-02T06:43:25.236Z,12.00
2022-11-02T06:45:58.461Z,12.00
2022-11-02T06:48:34.311Z,12.00
2022-11-02T06:51:04.130Z,12.00
2022-11-02T06:53:32.913Z,12.00
2022-11-02T06:56:01.894Z,12.10
2022-11-02T06:58:30.824Z,12.10
2022-11-02T07:01:02.410Z,12.10
2022-11-02T07:03:31.617Z,12.10
2022-11-02T07:06:00.927Z,12.10
2022-11-02T07:08:29.923Z,12.10
2022-11-02T07:10:58.883Z,12.10
2022-11-02T07:13:27.354Z,12.10
2022-11-02T07:15:56.653Z,12.10
2022-11-02T07:18:26.583Z,12.20
2022-11-02T07:20:55.093Z,12.30
2022-11-02T07:23:24.277Z,12.20
2022-11-02T07:25:53.270Z,12.20
2022-11-02T07:28:24.703Z,12.20
2022-11-02T07:30:55.963Z,12.20
2022-11-02T07:33:25.882Z,12.20
2022-11-02T07:35:54.463Z,12.20
2022-11-02T07:38:22.963Z,12.40
2022-11-02T07:40:52.002Z,12.50
2022-11-02T07:43:20.608Z,12.50
2022-11-02T07:45:49.175Z,12.50
2022-11-02T07:48:17.705Z,12.70
2022-11-02T07:50:47.691Z,12.80
2022-11-02T07:53:16.263Z,12.80
2022-11-02T07:55:44.823Z,12.70
2022-11-02T07:58:14.905Z,12.80
2022-11-02T08:00:43.757Z,12.70
2022-11-02T08:03:14.862Z,12.70
2022-11-02T08:05:44.214Z,12.70
2022-11-02T08:08:15.673Z,12.80
2022-11-02T08:10:45.714Z,13.00
2022-11-02T08:13:16.659Z,13.10
2022-11-02T08:15:45.403Z,13.20
2022-11-02T08:18:16.773Z,13.40
2022-11-02T08:20:46.606Z,13.50
2022-11-02T08:23:18.285Z,13.50
2022-11-02T08:25:48.343Z,13.60
2022-11-02T08:28:19.507Z,13.50
2022-11-02T08:30:48.043Z,13.50
2022-11-02T08:33:18.584Z,13.50
2022-11-02T08:35:48.115Z,13.50
2022-11-02T08:38:18.545Z,13.40
2022-11-02T08:40:47.052Z,13.40
2022-11-02T08:43:16.784Z,13.40
2022-11-02T08:46:13.927Z,13.40
2022-11-02T08:48:35.674Z,13.40
2022-11-02T08:51:05.762Z,13.70
2022-11-02T08:53:35.825Z,13.90
2022-11-02T08:56:04.534Z,13.80
2022-11-02T08:58:33.065Z,13.80
2022-11-02T09:01:01.663Z,13.70
2022-11-02T09:03:30.354Z,13.70
2022-11-02T09:06:00.440Z,13.80
2022-11-02T09:08:29.752Z,13.90
2022-11-02T09:11:03.041Z,14.00
2022-11-02T09:13:32.049Z,14.10
2022-11-02T09:16:01.294Z,14.00
2022-11-02T09:18:30.146Z,14.00
2022-11-02T09:21:02.244Z,14.00
2022-11-02T09:23:30.713Z,13.90
2022-11-02T09:26:01.144Z,14.00
2022-11-02T09:28:29.804Z,14.10
2022-11-02T09:30:58.455Z,14.30
2022-11-02T09:33:26.948Z,14.40
2022-11-02T09:35:55.446Z,14.30
2022-11-02T09:38:24.060Z,14.30
2022-11-02T09:41:02.837Z,14.50
2022-11-02T09:43:43.305Z,14.60
2022-11-02T09:46:15.313Z,14.40
2022-11-02T09:48:46.814Z,14.30
2022-11-02T09:51:17.805Z,14.10
2022-11-02T09:53:57.879Z,14.20
2022-11-02T09:56:27.456Z,14.20
2022-11-02T09:59:01.952Z,14.20
2022-11-02T10:01:49.033Z,14.20
2022-11-02T10:04:42.844Z,14.20
2022-11-02T10:07:21.061Z,14.20
2022-11-02T10:09:55.256Z,14.10
2022-11-02T10:12:30.627Z,13.80
2022-11-02T10:15:06.536Z,13.60
2022-11-02T10:17:37.884Z,13.30
2022-11-02T10:20:12.493Z,13.10
2022-11-02T10:22:43.876Z,12.90
2022-11-02T10:25:16.284Z,12.70
2022-11-02T10:27:48.397Z,12.50
2022-11-02T10:30:20.600Z,12.40
2022-11-02T10:32:51.984Z,12.30
2022-11-02T10:35:45.845Z,12.20
2022-11-02T10:38:29.682Z,12.30
2022-11-02T10:41:16.705Z,12.40
2022-11-02T10:43:59.033Z,13.20
2022-11-02T10:46:43.017Z,15.60
2022-11-02T10:49:20.595Z,16.20
2022-11-02T10:51:49.366Z,15.90
2022-11-02T10:54:22.765Z,15.50
2022-11-02T10:56:58.144Z,15.00
2022-11-02T10:59:27.106Z,14.70
2022-11-02T11:02:13.591Z,14.80
2022-11-02T11:04:43.398Z,15.50
2022-11-02T11:07:18.364Z,16.40
2022-11-02T11:09:55.236Z,16.70
2022-11-02T11:12:27.775Z,17.30
2022-11-02T11:20:39.916Z,16.90
2022-11-02T11:23:20.653Z,16.30
2022-11-02T11:25:58.035Z,15.80
2022-11-02T11:28:29.838Z,15.30
2022-11-02T11:31:11.215Z,15.00
2022-11-02T11:33:47.265Z,14.70
2022-11-02T11:36:30.999Z,14.50
2022-11-02T11:39:01.644Z,14.40
2022-11-02T11:41:30.851Z,14.30
2022-11-02T11:44:00.222Z,14.10
2022-11-02T11:46:41.518Z,13.90
2022-11-02T11:49:35.951Z,13.60
2022-11-02T11:52:20.396Z,13.30
2022-11-02T11:54:55.745Z,12.80
2022-11-02T11:57:30.040Z,12.50
2022-11-02T12:00:01.835Z,12.30
2022-11-02T12:02:32.353Z,12.20
2022-11-02T12:05:12.860Z,12.10
2022-11-02T12:08:11.903Z,12.00
2022-11-02T12:11:00.660Z,11.90
2022-11-02T12:13:50.663Z,11.80
2022-11-02T12:16:29.983Z,11.70
2022-11-02T12:19:13.714Z,11.60
2022-11-02T12:21:56.804Z,11.70
2022-11-02T12:24:51.272Z,11.60
2022-11-02T12:27:29.965Z,11.60
2022-11-02T12:30:15.271Z,11.60
2022-11-02T12:33:06.768Z,11.60
2022-11-02T12:35:51.293Z,11.30
2022-11-02T12:38:53.748Z,11.20
2022-11-02T12:41:55.904Z,11.20
2022-11-02T12:44:48.197Z,11.20
2022-11-02T12:47:33.156Z,11.00
2022-11-02T12:50:11.150Z,11.00
2022-11-02T12:52:50.334Z,11.00
2022-11-02T12:55:23.174Z,11.00
2022-11-02T12:57:53.714Z,10.90
2022-11-02T13:00:23.784Z,10.70
2022-11-02T13:02:59.276Z,10.60
2022-11-02T13:05:31.242Z,10.60
2022-11-02T13:08:08.131Z,10.70
2022-11-02T13:10:43.341Z,10.80
2022-11-02T13:13:16.144Z,10.90
2022-11-02T13:15:47.972Z,10.90
2022-11-02T13:18:21.165Z,11.00
2022-11-02T13:20:53.263Z,11.00
2022-11-02T13:23:32.827Z,11.00
2022-11-02T13:26:04.903Z,11.10
2022-11-02T13:28:40.387Z,11.10
2022-11-02T13:31:14.266Z,11.20
2022-11-02T13:33:48.026Z,11.30
2022-11-02T13:36:16.964Z,11.30
2022-11-02T13:38:50.345Z,11.40
2022-11-02T13:41:40.358Z,11.50
2022-11-02T13:44:54.994Z,11.60
2022-11-02T13:47:46.534Z,11.60
2022-11-02T13:50:19.218Z,11.80
2022-11-02T13:52:50.613Z,11.80
2022-11-02T13:55:23.345Z,11.90
2022-11-02T13:57:57.172Z,11.90
2022-11-02T14:00:32.957Z,11.90
2022-11-02T14:03:07.198Z,12.10
2022-11-02T14:05:42.664Z,12.20
2022-11-02T14:08:19.271Z,12.30
2022-11-02T14:11:04.711Z,12.30
2022-11-02T14:14:21.833Z,12.20
2022-11-02T14:17:16.221Z,12.20
2022-11-02T14:19:57.185Z,12.10
2022-11-02T14:22:26.024Z,12.10
2022-11-02T14:24:56.424Z,12.10
2022-11-02T14:27:32.004Z,12.20
2022-11-02T14:30:00.908Z,12.20
2022-11-02T14:32:55.480Z,12.30
2022-11-02T14:35:42.353Z,12.40
2022-11-02T14:38:37.605Z,12.40
2022-11-02T14:41:19.392Z,12.20
2022-11-02T14:44:35.433Z,12.10
2022-11-02T14:47:09.266Z,12.00
2022-11-02T14:49:46.982Z,12.00
2022-11-02T14:52:28.671Z,11.90
2022-11-02T14:55:04.892Z,11.90
2022-11-02T14:57:37.265Z,12.00
2022-11-02T15:00:19.924Z,12.20
2022-11-02T15:02:49.301Z,12.30
2022-11-02T15:05:30.638Z,12.30
2022-11-02T15:08:02.673Z,12.20
2022-11-02T15:10:43.083Z,12.20
2022-11-02T15:13:48.984Z,12.10
2022-11-02T15:16:38.861Z,12.10
2022-11-02T15:19:46.760Z,12.00
2022-11-02T15:22:37.708Z,11.90
2022-11-02T15:25:14.347Z,11.90
2022-11-02T15:27:45.442Z,11.80
2022-11-02T15:30:17.294Z,11.80
2022-11-02T15:32:50.644Z,11.70
2022-11-02T15:35:22.923Z,11.70
2022-11-02T15:38:16.535Z,11.60
2022-11-02T15:40:52.291Z,11.60
2022-11-02T15:43:49.407Z,11.50
2022-11-02T15:46:29.766Z,11.50
2022-11-02T15:49:08.893Z,11.40
2022-11-02T15:51:43.702Z,11.40
2022-11-02T15:54:30.193Z,11.40
2022-11-02T15:57:12.894Z,11.40
2022-11-02T16:00:04.303Z,11.30
2022-11-02T16:02:36.507Z,11.30
2022-11-02T16:05:07.506Z,11.30
2022-11-02T16:08:05.006Z,11.20
2022-11-02T16:10:30.967Z,11.10
2022-11-02T16:13:03.185Z,11.10
2022-11-02T16:15:32.725Z,11.10
2022-11-02T16:18:02.477Z,11.10
2022-11-02T16:20:34.734Z,11.10
2022-11-02T16:23:05.991Z,11.00
2022-11-02T16:25:40.378Z,10.90
2022-11-02T16:28:22.045Z,10.80
2022-11-02T16:31:03.400Z,10.70
2022-11-02T16:33:40.135Z,10.70
2022-11-02T16:36:10.871Z,10.50
2022-11-02T16:38:40.905Z,10.40
2022-11-02T16:41:12.398Z,10.30
2022-11-02T16:43:46.034Z,10.20
2022-11-02T16:46:19.166Z,10.10
2022-11-02T16:49:15.288Z,10.00
2022-11-02T16:51:54.156Z,10.00
2022-11-02T16:54:41.716Z,9.90
2022-11-02T16:57:20.354Z,9.90
2022-11-02T16:59:53.012Z,9.80
2022-11-02T17:02:35.052Z,9.70
2022-11-02T17:05:06.833Z,9.70
2022-11-02T17:07:40.757Z,9.60
2022-11-02T17:10:11.418Z,9.60
2022-11-02T17:12:45.092Z,9.50
2022-11-02T17:15:19.308Z,9.50
2022-11-02T17:17:50.519Z,9.50
2022-11-02T17:20:22.955Z,9.40
2022-11-02T17:22:58.210Z,9.30
2022-11-02T17:25:28.790Z,9.30
2022-11-02T17:28:00.434Z,9.20
2022-11-02T17:30:46.112Z,9.10
2022-11-02T17:33:25.996Z,9.10
2022-11-02T17:35:57.033Z,9.00
2022-11-02T17:38:28.489Z,8.90
2022-11-02T17:41:00.733Z,8.80
2022-11-02T17:43:30.434Z,8.70
2022-11-02T17:46:00.605Z,8.60
2022-11-02T17:48:31.261Z,8.50
2022-11-02T17:51:01.205Z,8.50
2022-11-02T17:53:30.303Z,8.40
2022-11-02T17:55:59.133Z,8.30
2022-11-02T17:58:27.752Z,8.20
2022-11-02T18:00:58.170Z,8.10
2022-11-02T18:03:31.187Z,8.10
2022-11-02T18:06:00.750Z,8.00
2022-11-02T18:08:30.552Z,8.00
2022-11-02T18:11:00.664Z,7.90
2022-11-02T18:13:29.415Z,7.90
2022-11-02T18:15:59.706Z,7.80
2022-11-02T18:18:28.482Z,7.80
2022-11-02T18:20:57.198Z,7.70
2022-11-02T18:23:26.343Z,7.70
2022-11-02T18:25:58.364Z,7.70
2022-11-02T18:28:28.306Z,7.70
2022-11-02T18:30:59.168Z,7.60
2022-11-02T18:33:28.268Z,7.60
2022-11-02T18:36:04.234Z,7.50
2022-11-02T18:38:33.006Z,7.50
2022-11-02T18:41:27.078Z,7.40
2022-11-02T18:44:02.388Z,7.30
2022-11-02T18:46:34.904Z,7.30
2022-11-02T18:49:04.265Z,7.20
2022-11-02T18:51:33.223Z,7.20
2022-11-02T18:54:03.795Z,7.10
2022-11-02T18:56:32.890Z,7.10
2022-11-02T18:59:02.114Z,7.10
2022-11-02T19:01:31.431Z,7.10
2022-11-02T19:04:02.841Z,7.00
2022-11-02T19:06:52.000Z,7.00
2022-11-02T19:09:23.774Z,7.00
2022-11-02T19:11:56.972Z,6.90
2022-11-02T19:14:26.641Z,6.90
2022-11-02T19:16:55.623Z,6.90
2022-11-02T19:19:26.104Z,6.90
2022-11-02T19:21:55.793Z,6.90
2022-11-02T19:24:24.943Z,6.90
2022-11-02T19:26:53.872Z,6.90
2022-11-02T19:29:23.568Z,6.90
2022-11-02T19:31:52.733Z,6.80
2022-11-02T19:34:23.273Z,6.80
2022-11-02T19:36:54.133Z,6.80
2022-11-02T19:39:23.408Z,6.80
2022-11-02T19:41:54.568Z,6.80
2022-11-02T19:44:24.431Z,6.70
2022-11-02T19:46:53.619Z,6.70
2022-11-02T19:49:22.655Z,6.70
2022-11-02T19:51:52.869Z,6.80
2022-11-02T19:54:21.942Z,6.80
2022-11-02T19:56:50.804Z,6.80
2022-11-02T19:59:20.375Z,6.70
2022-11-02T20:01:50.814Z,6.70
2022-11-02T20:04:20.354Z,6.70
2022-11-02T20:06:48.929Z,6.70
2022-11-02T20:09:21.317Z,6.70
2022-11-02T20:11:50.715Z,6.70
2022-11-02T20:14:19.672Z,6.70
2022-11-02T20:16:58.745Z,6.70
2022-11-02T20:19:37.523Z,6.70
2022-11-02T20:22:07.131Z,6.70
2022-11-02T20:24:38.256Z,6.70
2022-11-02T20:27:08.280Z,6.70
2022-11-02T20:29:37.412Z,6.70
2022-11-02T20:32:10.804Z,6.70
2022-11-02T20:34:40.064Z,6.70
2022-11-02T20:37:10.066Z,6.60
2022-11-02T20:39:40.945Z,6.60
2022-11-02T20:42:11.223Z,6.50
2022-11-02T20:44:40.154Z,6.50
2022-11-02T20:47:10.429Z,6.50
2022-11-02T20:49:54.465Z,6.50
2022-11-02T20:52:23.384Z,6.50
2022-11-02T20:54:53.571Z,6.40
2022-11-02T20:57:23.182Z,6.40
2022-11-02T20:59:51.724Z,6.40
2022-11-02T21:02:22.385Z,6.40
2022-11-02T21:04:51.063Z,6.40
2022-11-02T21:07:19.859Z,6.40
2022-11-02T21:09:48.367Z,6.40
2022-11-02T21:12:36.146Z,6.40
2022-11-02T21:15:05.913Z,6.40
2022-11-02T21:17:36.195Z,6.40
2022-11-02T21:22:54.210Z,6.40
2022-11-02T21:25:22.734Z,6.40
2022-11-02T21:27:52.696Z,6.40
2022-11-02T21:30:21.475Z,6.40
2022-11-02T21:32:51.943Z,6.40
2022-11-02T21:35:20.448Z,6.40
2022-11-02T21:37:48.982Z,6.40
2022-11-02T21:40:17.662Z,6.40
2022-11-02T21:42:46.216Z,6.40
2022-11-02T21:45:18.123Z,6.40
2022-11-02T21:47:47.224Z,6.40
2022-11-02T21:50:15.855Z,6.40
2022-11-02T21:52:45.318Z,6.40
2022-11-02T21:55:14.072Z,6.40
2022-11-02T21:57:42.585Z,6.40
2022-11-02T22:00:12.023Z,6.30
2022-11-02T22:02:41.295Z,6.40
2022-11-02T22:05:30.054Z,6.30
2022-11-02T22:08:15.717Z,6.40
2022-11-02T22:10:44.203Z,6.50
2022-11-02T22:13:30.173Z,6.40
2022-11-02T22:15:58.663Z,6.50
2022-11-02T22:18:29.373Z,6.40
2022-11-02T22:20:58.534Z,6.50
2022-11-02T22:23:27.023Z,6.40
2022-11-02T22:26:00.574Z,6.50
2022-11-02T22:28:33.257Z,6.50
2022-11-02T22:31:05.504Z,6.50
2022-11-02T22:33:35.592Z,6.50
2022-11-02T22:36:06.247Z,6.60
2022-11-02T22:38:51.545Z,6.60
2022-11-02T22:41:21.745Z,6.70
2022-11-02T22:43:51.639Z,6.70
2022-11-02T22:46:20.499Z,6.70
2022-11-02T22:48:52.397Z,6.80
2022-11-02T22:51:21.695Z,6.80
2022-11-02T22:53:50.769Z,6.80
2022-11-02T22:56:21.120Z,6.80
2022-11-02T22:58:50.645Z,6.80
2022-11-02T23:01:21.336Z,6.90
2022-11-02T23:03:51.792Z,6.90
2022-11-02T23:06:22.168Z,6.90
2022-11-02T23:08:52.053Z,7.00
2022-11-02T23:11:23.982Z,7.00
2022-11-02T23:13:58.293Z,7.10
2022-11-02T23:16:28.554Z,7.10
2022-11-02T23:19:30.287Z,7.20
2022-11-02T23:22:17.865Z,7.20
2022-11-02T23:25:05.433Z,7.10
2022-11-02T23:27:35.172Z,7.10
2022-11-02T23:30:21.083Z,7.10
2022-11-02T23:32:51.343Z,7.10
2022-11-02T23:35:38.825Z,7.10
2022-11-02T23:38:07.814Z,7.10
2022-11-02T23:40:36.374Z,7.10
2022-11-02T23:43:06.435Z,7.00
2022-11-02T23:45:35.204Z,7.00
2022-11-02T23:48:07.425Z,7.10
2022-11-02T23:50:55.303Z,7.10
2022-11-02T23:53:42.462Z,7.10
2022-11-02T23:56:33.813Z,7.20
2022-11-02T23:59:08.634Z,7.20
